ADDS METAR Data INFO
IDs: Format: Raw Decoded Include TAF

Data at: 0351 UTC 17 Oct 2017

KE38 170335Z AUTO 24005KT 10SM CLR 10/01 A3043 RMK AO2 T00950014
KE38 170315Z AUTO 25007KT 10SM CLR 10/01 A3043 RMK AO2 T00980012
KE38 170255Z AUTO 27005KT 10SM CLR 10/01 A3043 RMK AO2 T00950010
KE38 170235Z AUTO 27003KT 10SM CLR 11/01 A3043 RMK AO2 T01090009
KE38 170215Z AUTO 00000KT 10SM CLR 11/01 A3043 RMK AO2 T01140010
KE38 170155Z AUTO 00000KT 10SM CLR 13/01 A3043 RMK AO2 T01260006
KE38 170135Z AUTO 00000KT 10SM CLR 14/01 A3043 RMK AO2 T01370008
KE38 170115Z AUTO 00000KT 10SM CLR 15/01 A3043 RMK AO2 T01510007
KE38 170055Z AUTO 00000KT 10SM CLR 16/01 A3042 RMK AO2 T01560008
KE38 170035Z AUTO 07004KT 10SM CLR 17/01 A3042 RMK AO2 T01650010
KE38 170015Z AUTO 07004KT 10SM CLR 18/01 A3042 RMK AO2 T01780012
KE38 162355Z AUTO 08005KT 10SM CLR 20/01 A3041 RMK AO2 T01950012 10210 20175
KE38 162335Z AUTO 06005KT 10SM CLR 20/02 A3041 RMK AO2 T02000015
KE38 162315Z AUTO 06004KT 10SM CLR 21/02 A3041 RMK AO2 T02050020
KE38 162255Z AUTO 05005KT 10SM CLR 21/02 A3041 RMK AO2 T02050020
KE38 162235Z AUTO 07004KT 10SM CLR 21/02 A3041 RMK AO2 T02060019
KE38 162215Z AUTO 00000KT 10SM CLR 21/02 A3041 RMK AO2 T02090020
KE38 162155Z AUTO 06004KT 10SM CLR 21/02 A3041 RMK AO2 T02070019
KE38 162135Z AUTO 00000KT 10SM CLR 20/02 A3042 RMK AO2 T02010016
KE38 162115Z AUTO 05006KT 10SM CLR 21/02 A3042 RMK AO2 T02080018
KE38 162055Z AUTO 07007KT 10SM CLR 20/01 A3043 RMK AO2 T02020013
KE38 162035Z AUTO 05004KT 10SM CLR 20/01 A3044 RMK AO2 T02020005
KE38 162015Z AUTO 04005KT 10SM CLR 20/00 A3045 RMK AO2 T01971001
KE38 161955Z AUTO 05006KT 10SM CLR 20/00 A3046 RMK AO2 T02001003
KE38 161935Z AUTO 07005KT 10SM CLR 19/M02 A3047 RMK AO2 T01931017
KE38 161915Z AUTO 05004KT 10SM CLR 19/M01 A3048 RMK AO2 T01881015
KE38 161855Z AUTO 03008KT 10SM CLR 18/M02 A3050 RMK AO2 T01841020
KE38 161835Z AUTO 01004KT 10SM CLR 18/M02 A3051 RMK AO2 T01801021
KE38 161815Z AUTO 06005KT 10SM CLR 18/M03 A3052 RMK AO2 T01771031
KE38 161755Z AUTO 06005KT 10SM CLR 18/M03 A3052 RMK AO2 T01751035 10178 20051
KE38 161735Z AUTO 04008KT 10SM CLR 18/M06 A3053 RMK AO2 T01751057
KE38 161715Z AUTO 04005KT 10SM CLR 17/M02 A3053 RMK AO2 T01651022
KE38 161655Z AUTO 06007KT 10SM CLR 16/M01 A3054 RMK AO2 T01561007
KE38 161635Z AUTO 06004KT 10SM CLR 15/00 A3054 RMK AO2 T01470001
KE38 161615Z AUTO 00000KT 10SM CLR 14/01 A3055 RMK AO2 T01420006
KE38 161555Z AUTO 05003KT 10SM CLR 14/01 A3055 RMK AO2 T01350014
KE38 161535Z AUTO 05005KT 10SM CLR 13/02 A3055 RMK AO2 T01290018
KE38 161515Z AUTO 07004KT 10SM CLR 12/02 A3055 RMK AO2 T01220018
KE38 161455Z AUTO 04004KT 10SM CLR 12/02 A3055 RMK AO2 T01150017
KE38 161435Z AUTO 04004KT 10SM CLR 11/02 A3055 RMK AO2 T01100019
KE38 161415Z AUTO 00000KT 10SM CLR 10/02 A3055 RMK AO2 T01000020
KE38 161355Z AUTO 00000KT 10SM CLR 09/03 A3054 RMK AO2 T00850026
KE38 161335Z AUTO 00000KT 10SM CLR 07/02 A3054 RMK AO2 T00670023
KE38 161315Z AUTO 00000KT 10SM CLR 07/01 A3054 RMK AO2 T00660012
KE38 161255Z AUTO 00000KT 10SM CLR 05/02 A3054 RMK AO2 T00530016
KE38 161235Z AUTO 00000KT 10SM CLR 08/01 A3053 RMK AO2 T00750012
KE38 161215Z AUTO 00000KT 10SM CLR 06/02 A3052 RMK AO2 T00560021
KE38 161155Z AUTO 00000KT 10SM SCT060 05/02 A3052 RMK AO2 T00520022 10096 20050
KE38 161135Z AUTO 00000KT 10SM SCT060 06/02 A3052 RMK AO2 T00590023
KE38 161115Z AUTO 16003KT 10SM SCT060 05/03 A3052 RMK AO2 T00530027
KE38 161055Z AUTO 00000KT 10SM BKN060 06/03 A3052 RMK AO2 T00560025
KE38 161035Z AUTO 00000KT 10SM SCT060 07/02 A3051 RMK AO2 T00710018
KE38 161015Z AUTO 00000KT 10SM CLR 07/02 A3051 RMK AO2 T00660020
KE38 160955Z AUTO 00000KT 10SM CLR 05/02 A3051 RMK AO2 T00540024
KE38 160935Z AUTO 00000KT 10SM CLR 06/03 A3051 RMK AO2 T00630025
KE38 160915Z AUTO 00000KT 10SM SCT100 06/03 A3052 RMK AO2 T00620028
KE38 160855Z AUTO 00000KT 10SM SCT100 06/03 A3052 RMK AO2 T00590032
KE38 160835Z AUTO 00000KT 10SM SCT100 06/04 A3052 RMK AO2 T00630035
KE38 160815Z AUTO 00000KT 10SM CLR 08/04 A3052 RMK AO2 T00800038
KE38 160755Z AUTO 00000KT 10SM CLR 09/04 A3052 RMK AO2 T00870035
KE38 160735Z AUTO 00000KT 10SM CLR 09/03 A3052 RMK AO2 T00900034
KE38 160715Z AUTO 00000KT 10SM SCT100 09/04 A3054 RMK AO2 T00880044
KE38 160655Z AUTO 00000KT 10SM OVC100 09/05 A3054 RMK AO2 T00860050
KE38 160635Z AUTO 00000KT 10SM BKN100 09/05 A3054 RMK AO2 T00910048
KE38 160615Z AUTO 00000KT 10SM SCT100 10/05 A3054 RMK AO2 T00960049
KE38 160555Z AUTO 00000KT 10SM CLR 09/05 A3055 RMK AO2 T00940052 10098 20090 401970077
KE38 160535Z AUTO 00000KT 10SM CLR 09/06 A3055 RMK AO2 T00930055
KE38 160515Z AUTO 00000KT 10SM CLR 09/06 A3055 RMK AO2 T00910062
KE38 160455Z AUTO 00000KT 10SM CLR 09/07 A3055 RMK AO2 T00910065
KE38 160435Z AUTO 00000KT 10SM SCT100 09/06 A3055 RMK AO2 T00930062
KE38 160415Z AUTO 00000KT 10SM SCT100 09/06 A3055 RMK AO2 T00920063
KE38 160355Z AUTO 00000KT 10SM CLR 09/07 A3054 RMK AO2 T00930066
KE38 160330Z AUTO 00000KT 10SM SCT090 09/07 A3054 RMK AO2 T00920067
KE38 160315Z AUTO 00000KT 10SM SCT090 10/07 A3055 RMK AO2 T00950068
KE38 160255Z AUTO 00000KT 10SM BKN090 10/06 A3054 RMK AO2 T00950062
KE38 160235Z AUTO 00000KT 10SM SCT090 09/06 A3054 RMK AO2 T00920059
KE38 160215Z AUTO 00000KT 10SM CLR 09/06 A3053 RMK AO2 T00910060
KE38 160155Z AUTO 02003KT 10SM SCT090 09/06 A3052 RMK AO2 T00910060
KE38 160135Z AUTO 05003KT 10SM BKN090 09/06 A3052 RMK AO2 T00910055
KE38 160115Z AUTO 06003KT 10SM OVC090 10/05 A3051 RMK AO2 T00950048
KE38 160055Z AUTO 07003KT 10SM SCT016 BKN100 BKN120 09/05 A3051 RMK AO2 T00940049
KE38 160035Z AUTO 09004KT 10SM SCT090 BKN120 10/05 A3049 RMK AO2 T00950050
KE38 160015Z AUTO 08004KT 10SM SCT017 SCT090 OVC110 10/05 A3048 RMK AO2 T00960050
KE38 152355Z AUTO 07007KT 10SM SCT017 OVC100 10/05 A3049 RMK AO2 T00990051 10136 20093
KE38 152335Z AUTO 08006KT 10SM BKN080 OVC110 10/05 A3049 RMK AO2 T01020049
KE38 152315Z AUTO 07006KT 10SM OVC080 10/05 A3048 RMK AO2 T01000052
KE38 152255Z AUTO 08006KT 10SM OVC080 10/05 A3048 RMK AO2 LTG DSNT E T01040052
KE38 152235Z AUTO 08006KT 10SM OVC080 11/05 A3048 RMK AO2 T01100051
KE38 152215Z AUTO 07006KT 10SM BKN080 BKN100 12/05 A3048 RMK AO2 T01160046
KE38 152155Z AUTO 09007KT 10SM SCT075 SCT090 BKN120 12/04 A3048 RMK AO2 T01170040
KE38 152135Z AUTO 07007KT 10SM OVC075 12/03 A3049 RMK AO2 T01210032
KE38 152115Z AUTO 07010G15KT 10SM SCT021 OVC075 12/03 A3049 RMK AO2 T01190028
KE38 152055Z AUTO 06009KT 10SM SCT021 OVC075 13/03 A3049 RMK AO2 T01270031
KE38 152035Z AUTO 06009KT 10SM SCT021 OVC075 14/03 A3049 RMK AO2 T01350031
KE38 152015Z AUTO 07008KT 10SM OVC021 13/03 A3049 RMK AO2 T01250029
KE38 151955Z AUTO 06009KT 10SM OVC021 12/04 A3051 RMK AO2 T01180035
KE38 151935Z AUTO 05008KT 10SM OVC021 12/03 A3052 RMK AO2 T01150034
KE38 151915Z AUTO 04009KT 10SM OVC021 11/03 A3052 RMK AO2 T01120032
KE38 151855Z AUTO 03009G15KT 10SM OVC021 11/03 A3054 RMK AO2 T01120032
KE38 151835Z AUTO 04010G15KT 10SM OVC019 10/03 A3054 RMK AO2 T01040032
KE38 151815Z AUTO 06009G15KT 10SM VCTS OVC019 10/03 A3055 RMK AO2 LTG DSNT NE T01040034
KE38 151755Z AUTO 05009G16KT 10SM OVC017 09/04 A3057 RMK AO2 T00900040 10106 20077
KE38 151735Z AUTO 04013KT 10SM OVC017 08/04 A3058 RMK AO2 T00800038
KE38 151715Z AUTO 04013G18KT 10SM OVC015 09/04 A3058 RMK AO2 LTG DSNT NE T00900037
KE38 151655Z AUTO 03012KT 10SM BKN015 OVC023 09/05 A3058 RMK AO2 T00870050
KE38 151635Z AUTO 03011G17KT 10SM BKN017 OVC024 10/05 A3057 RMK AO2 T00950046
KE38 151615Z AUTO 04009KT 10SM OVC019 09/05 A3058 RMK AO2 T00900045
KE38 151555Z AUTO 04010KT 10SM BKN013 OVC021 08/04 A3057 RMK AO2 T00810043